Time;durP1;ratioP1;P1;durP2;ratioP2;P2;SDS_P1;SDS_P2;PMS_P1;PMS_P2;Temp;Humidity;BMP_temperature;BMP_pressure;BME280_temperature;BME280_humidity;BME280_pressure;Samples;Min_cycle;Max_cycle;Signal;HPM_P1;HPM_P2
2022/08/29 00:01:50;;;;;;;23.95;9.60;;;;;;;25.26;57.33;99617.25;5044208;28;20036;-68
2022/08/29 00:04:16;;;;;;;17.17;7.70;;;;;;;25.25;57.66;99627.28;5043101;28;20181;-68
2022/08/29 00:06:41;;;;;;;17.33;6.78;;;;;;;25.27;57.10;99617.00;5043421;28;20044;-68
2022/08/29 00:09:07;;;;;;;13.57;6.55;;;;;;;25.39;57.03;99630.34;5042817;28;20037;-68
2022/08/29 00:11:32;;;;;;;17.50;6.57;;;;;;;25.41;57.02;99629.00;5042441;28;20045;-68
2022/08/29 00:13:58;;;;;;;23.95;7.43;;;;;;;25.39;57.18;99633.88;5047516;28;20091;-68
2022/08/29 00:16:23;;;;;;;14.80;7.38;;;;;;;25.38;57.51;99636.84;5043310;28;20272;-68
2022/08/29 00:18:49;;;;;;;17.73;7.85;;;;;;;25.28;57.86;99636.78;5045117;28;20033;-68
2022/08/29 00:21:14;;;;;;;14.20;7.53;;;;;;;25.19;58.25;99641.88;5041571;28;20038;-68
2022/08/29 00:23:42;;;;;;;12.07;7.57;;;;;;;25.22;58.38;99649.47;5043069;28;20042;-68
2022/08/29 00:26:08;;;;;;;17.13;7.57;;;;;;;25.20;58.77;99661.66;5044014;28;20049;-68
2022/08/29 00:28:33;;;;;;;19.77;8.02;;;;;;;24.84;59.74;99643.16;5043317;28;20334;-68
2022/08/29 00:30:58;;;;;;;14.05;7.43;;;;;;;24.63;60.81;99649.47;5043031;28;20076;-68
2022/08/29 00:33:24;;;;;;;16.20;7.97;;;;;;;24.54;61.20;99644.75;5043846;28;20022;-68
2022/08/29 00:35:49;;;;;;;14.07;7.60;;;;;;;24.50;61.64;99652.56;5042584;28;20044;-68
2022/08/29 00:38:16;;;;;;;17.27;7.68;;;;;;;24.48;61.41;99644.72;5043968;28;20578;-68
2022/08/29 00:40:48;;;;;;;12.50;7.43;;;;;;;24.51;61.79;99635.28;5043539;28;20060;-68
2022/08/29 00:43:14;;;;;;;20.95;7.80;;;;;;;24.55;61.28;99655.34;5042882;28;20021;-68
2022/08/29 00:45:50;;;;;;;23.80;8.18;;;;;;;24.38;61.76;99652.72;5043500;28;20060;-68
2022/08/29 00:48:17;;;;;;;17.77;7.80;;;;;;;24.23;62.25;99651.72;5043413;28;20318;-68
2022/08/29 00:50:47;;;;;;;19.00;9.07;;;;;;;24.06;63.51;99654.50;5042712;28;20434;-68
2022/08/29 00:53:15;;;;;;;15.15;8.45;;;;;;;23.99;63.68;99657.41;5040297;28;20049;-68
2022/08/29 00:55:44;;;;;;;25.85;8.48;;;;;;;24.02;63.57;99659.59;5044046;28;20045;-68
2022/08/29 00:58:15;;;;;;;13.57;7.85;;;;;;;24.04;63.73;99653.94;5042506;28;20261;-68
2022/08/29 01:00:42;;;;;;;15.02;8.07;;;;;;;24.15;63.60;99651.09;5042939;28;20096;-68
2022/08/29 01:03:07;;;;;;;13.82;7.80;;;;;;;24.17;63.45;99650.84;5043005;28;20041;-68
2022/08/29 01:05:35;;;;;;;22.25;8.25;;;;;;;24.26;62.91;99654.72;5027128;28;20040;-68
2022/08/29 01:08:01;;;;;;;17.30;7.93;;;;;;;24.23;62.20;99646.31;5024981;28;20407;-68
2022/08/29 01:13:11;;;;;;;;;;;;;;;24.19;63.21;99654.13;5042016;28;20028;-68
2022/08/29 01:15:39;;;;;;;17.73;8.05;;;;;;;24.13;63.36;99652.41;5040728;28;19917;-68
2022/08/29 01:18:07;;;;;;;19.70;7.85;;;;;;;24.09;63.74;99657.50;5040597;28;20057;-68
2022/08/29 01:20:49;;;;;;;12.05;7.10;;;;;;;24.07;63.88;99646.13;5026360;28;20595;-68
2022/08/29 01:23:52;;;;;;;18.52;7.50;;;;;;;24.09;63.60;99648.59;5025228;28;20033;-68
2022/08/29 01:26:18;;;;;;;17.60;8.30;;;;;;;24.11;64.33;99644.56;5043574;28;20096;-68
2022/08/29 01:28:50;;;;;;;22.48;8.30;;;;;;;24.13;64.09;99634.28;5040928;28;20045;-69
2022/08/29 01:31:19;;;;;;;21.50;8.32;;;;;;;24.04;64.08;99641.22;5042920;28;20044;-68
2022/08/29 01:33:58;;;;;;;18.17;8.57;;;;;;;23.84;64.81;99639.06;5041099;28;20084;-68
2022/08/29 01:36:31;;;;;;;21.40;8.77;;;;;;;23.91;64.90;99654.28;5040504;28;20041;-68
2022/08/29 01:38:57;;;;;;;14.23;7.73;;;;;;;24.06;64.07;99658.03;5042386;28;21090;-68
2022/08/29 01:41:22;;;;;;;16.13;8.73;;;;;;;24.07;63.96;99667.78;5041152;28;20048;-68
2022/08/29 01:43:53;;;;;;;17.25;7.78;;;;;;;23.87;64.39;99662.06;5041143;28;20031;-69
2022/08/29 01:46:26;;;;;;;18.50;8.73;;;;;;;23.70;65.00;99655.91;5040172;28;20033;-68
2022/08/29 01:48:52;;;;;;;18.95;7.70;;;;;;;23.64;65.11;99648.78;5043249;28;20424;-68
2022/08/29 01:51:18;;;;;;;15.05;8.15;;;;;;;23.41;65.95;99642.50;5041485;28;20061;-68
2022/08/29 01:53:44;;;;;;;17.70;8.45;;;;;;;23.61;65.86;99652.00;5042782;28;20218;-68
2022/08/29 01:56:18;;;;;;;18.80;8.50;;;;;;;23.70;65.02;99651.31;5042196;28;20045;-68
2022/08/29 01:58:45;;;;;;;17.77;7.88;;;;;;;23.71;64.85;99644.03;5041547;28;20029;-68
2022/08/29 02:01:14;;;;;;;16.80;7.82;;;;;;;23.67;65.01;99637.47;5040855;28;20323;-68
2022/08/29 02:03:40;;;;;;;18.77;8.20;;;;;;;23.66;64.87;99649.34;5042311;28;20263;-68
2022/08/29 02:06:08;;;;;;;14.13;8.43;;;;;;;23.36;66.11;99650.53;5040894;28;20049;-68
2022/08/29 02:08:33;;;;;;;16.10;8.07;;;;;;;23.18;67.03;99654.31;5040268;28;20044;-68
2022/08/29 02:10:59;;;;;;;16.88;8.13;;;;;;;23.13;67.07;99651.53;5041862;28;20050;-68
2022/08/29 02:13:24;;;;;;;15.82;8.77;;;;;;;23.06;67.40;99656.28;5041569;28;20032;-68
2022/08/29 02:15:51;;;;;;;15.65;7.68;;;;;;;23.12;67.38;99657.19;5042400;28;20095;-68
2022/08/29 02:18:17;;;;;;;15.38;8.15;;;;;;;23.15;67.23;99644.00;5044292;28;20096;-68
2022/08/29 02:20:43;;;;;;;16.85;8.48;;;;;;;23.22;66.88;99646.53;5042023;28;20280;-68
2022/08/29 02:23:09;;;;;;;14.57;8.55;;;;;;;23.27;66.41;99651.19;5042209;28;20314;-68
2022/08/29 02:25:41;;;;;;;14.20;7.65;;;;;;;23.14;66.89;99649.66;5041607;28;20037;-68
2022/08/29 02:28:10;;;;;;;18.50;8.70;;;;;;;23.14;66.94;99645.06;5042150;28;20051;-68
2022/08/29 02:30:37;;;;;;;20.00;8.85;;;;;;;23.20;66.76;99640.56;5043698;28;20261;-68
2022/08/29 02:33:03;;;;;;;16.27;8.52;;;;;;;23.23;66.74;99653.56;5058962;28;20033;-68
2022/08/29 02:35:28;;;;;;;20.20;8.50;;;;;;;23.16;67.03;99644.81;5044677;28;20033;-68
2022/08/29 02:37:53;;;;;;;20.58;8.73;;;;;;;23.24;67.49;99656.03;5045965;28;20040;-68
2022/08/29 02:40:19;;;;;;;17.52;8.77;;;;;;;23.31;67.21;99655.03;5043578;28;20037;-68
2022/08/29 02:42:44;;;;;;;11.93;8.00;;;;;;;23.25;66.42;99665.78;5044052;28;20033;-68
2022/08/29 02:45:10;;;;;;;17.25;8.07;;;;;;;23.14;67.22;99674.78;5045070;28;20465;-68
2022/08/29 02:47:36;;;;;;;17.15;8.20;;;;;;;23.07;67.60;99671.41;5044994;28;20028;-68
2022/08/29 02:50:07;;;;;;;21.67;7.85;;;;;;;23.07;67.70;99676.81;5043274;28;20049;-68
2022/08/29 02:52:33;;;;;;;20.00;9.18;;;;;;;23.05;67.95;99684.34;5044140;28;20038;-68
2022/08/29 02:54:59;;;;;;;21.70;8.80;;;;;;;23.07;68.08;99678.69;5045217;28;20029;-68
2022/08/29 02:57:25;;;;;;;17.42;9.20;;;;;;;23.08;67.63;99675.75;5045383;28;20045;-68
2022/08/29 02:59:51;;;;;;;27.27;9.43;;;;;;;23.13;67.29;99686.66;5044479;28;20038;-68
2022/08/29 03:02:16;;;;;;;18.23;8.75;;;;;;;23.14;66.75;99687.47;5043829;28;20445;-68
2022/08/29 03:04:42;;;;;;;16.38;8.88;;;;;;;23.15;66.67;99691.81;5044455;28;20025;-68
2022/08/29 03:07:07;;;;;;;17.13;8.57;;;;;;;23.01;67.02;99682.38;5044560;28;20028;-68
2022/08/29 03:09:33;;;;;;;15.05;8.90;;;;;;;22.96;67.42;99685.81;5042826;28;20038;-68
2022/08/29 03:11:58;;;;;;;17.80;8.90;;;;;;;22.93;67.61;99699.81;5043292;28;20037;-68
2022/08/29 03:14:24;;;;;;;16.90;8.85;;;;;;;22.86;68.12;99689.13;5045533;28;20037;-68
2022/08/29 03:16:51;;;;;;;14.73;8.75;;;;;;;22.89;68.21;99694.06;5045436;28;20042;-68
2022/08/29 03:19:17;;;;;;;16.33;9.70;;;;;;;22.93;68.31;99697.94;5044750;28;20037;-68
2022/08/29 03:21:43;;;;;;;18.83;9.57;;;;;;;22.94;68.20;99690.66;5046895;28;20227;-68
2022/08/29 03:24:08;;;;;;;14.10;8.10;;;;;;;23.01;67.53;99701.28;5046571;28;20286;-68
2022/08/29 03:26:34;;;;;;;21.33;8.77;;;;;;;23.00;67.96;99694.25;5047695;28;20033;-68
2022/08/29 03:28:59;;;;;;;26.73;9.63;;;;;;;22.95;68.20;99686.06;5043757;28;20311;-68
2022/08/29 03:31:25;;;;;;;18.55;9.32;;;;;;;23.03;68.09;99694.59;5044807;28;20040;-68
2022/08/29 03:33:50;;;;;;;19.23;9.40;;;;;;;23.13;67.57;99702.84;5044585;28;20319;-68
2022/08/29 03:36:16;;;;;;;13.73;8.73;;;;;;;23.08;67.12;99696.53;5044419;28;20037;-68
2022/08/29 03:38:45;;;;;;;19.30;10.43;;;;;;;22.91;67.45;99700.06;5044586;28;20017;-68
2022/08/29 03:41:17;;;;;;;19.23;9.48;;;;;;;22.98;67.47;99697.19;5044560;28;20130;-68
2022/08/29 03:43:43;;;;;;;22.50;9.93;;;;;;;22.85;68.13;99692.06;5042088;28;20071;-68
2022/08/29 03:46:08;;;;;;;20.20;9.10;;;;;;;22.97;67.81;99695.56;5045070;28;20034;-68
2022/08/29 03:48:34;;;;;;;26.70;10.05;;;;;;;22.97;68.16;99692.03;5045152;28;20050;-68
2022/08/29 03:50:59;;;;;;;19.40;9.43;;;;;;;22.98;67.95;99696.38;5046304;28;20040;-68
2022/08/29 03:53:25;;;;;;;25.52;10.93;;;;;;;22.96;68.24;99690.41;5042110;28;20215;-68
2022/08/29 03:55:51;;;;;;;35.88;12.60;;;;;;;23.00;68.36;99694.25;5043927;28;20037;-68
2022/08/29 03:58:16;;;;;;;33.60;11.50;;;;;;;23.09;68.18;99700.88;5046039;28;20316;-68
2022/08/29 04:00:42;;;;;;;32.90;11.50;;;;;;;23.08;68.34;99701.94;5045485;28;20041;-68
2022/08/29 04:03:10;;;;;;;32.58;10.70;;;;;;;23.00;68.39;99697.78;5043378;28;20029;-68
2022/08/29 04:05:35;;;;;;;32.83;11.00;;;;;;;23.06;67.94;99704.06;5047096;28;20075;-68
2022/08/29 04:08:01;;;;;;;34.90;12.00;;;;;;;23.04;68.18;99709.72;5043060;28;20041;-68
2022/08/29 04:10:31;;;;;;;28.70;12.48;;;;;;;22.95;68.93;99705.78;5042577;28;20044;-68
2022/08/29 04:12:57;;;;;;;29.60;11.68;;;;;;;23.00;69.16;99713.97;5042212;28;20036;-68
2022/08/29 04:15:25;;;;;;;32.88;12.40;;;;;;;23.07;68.81;99719.22;5044141;28;20067;-68
2022/08/29 04:17:56;;;;;;;30.60;11.73;;;;;;;23.21;68.58;99728.63;5043384;28;20052;-68
2022/08/29 04:20:24;;;;;;;31.75;10.80;;;;;;;23.20;68.12;99727.81;5046973;28;20025;-68
2022/08/29 04:22:50;;;;;;;24.70;11.20;;;;;;;23.05;68.69;99724.88;5043892;28;20196;-68
2022/08/29 04:25:16;;;;;;;32.00;10.95;;;;;;;23.01;69.09;99742.63;5043931;28;20036;-68
2022/08/29 04:27:42;;;;;;;27.58;9.68;;;;;;;22.91;69.57;99737.84;5042972;28;20025;-68
2022/08/29 04:30:11;;;;;;;26.42;10.93;;;;;;;22.89;69.93;99742.69;5043499;28;20123;-68
2022/08/29 04:32:37;;;;;;;35.88;12.85;;;;;;;22.93;70.33;99749.22;5042993;28;20239;-68
2022/08/29 04:35:04;;;;;;;42.72;14.13;;;;;;;23.06;69.92;99740.00;5043767;28;20037;-68
2022/08/29 04:37:30;;;;;;;53.28;16.95;;;;;;;23.15;69.51;99738.53;5042888;28;20246;-68
2022/08/29 04:39:55;;;;;;;49.15;18.02;;;;;;;23.18;69.88;99750.75;5043333;28;20039;-69
2022/08/29 04:42:21;;;;;;;47.28;19.00;;;;;;;23.19;69.34;99746.97;5043223;28;20041;-68
2022/08/29 04:44:47;;;;;;;55.53;20.65;;;;;;;23.34;68.64;99743.72;5055807;28;20029;-68
2022/08/29 04:47:13;;;;;;;56.80;20.70;;;;;;;23.59;67.62;99743.31;5060970;28;20045;-68
2022/08/29 04:49:41;;;;;;;56.45;22.30;;;;;;;23.75;66.90;99743.31;5046933;28;20048;-68
2022/08/29 04:52:06;;;;;;;58.10;26.02;;;;;;;23.70;66.40;99748.63;5041598;28;21364;-68
2022/08/29 04:54:32;;;;;;;64.80;28.73;;;;;;;23.68;66.82;99753.47;5041054;28;20041;-68
2022/08/29 04:57:02;;;;;;;54.88;26.50;;;;;;;23.59;67.12;99767.66;5040691;28;20040;-68
2022/08/29 04:59:28;;;;;;;47.90;20.10;;;;;;;23.60;67.53;99767.41;5042279;28;20029;-68
2022/08/29 05:01:53;;;;;;;39.53;17.13;;;;;;;23.65;67.32;99755.84;5044177;28;20366;-68
2022/08/29 05:04:19;;;;;;;30.45;15.13;;;;;;;23.93;66.88;99761.16;5044828;28;20033;-69
2022/08/29 05:06:44;;;;;;;39.08;14.00;;;;;;;24.07;66.59;99769.75;5042939;28;20029;-68
2022/08/29 05:09:09;;;;;;;29.35;11.75;;;;;;;24.00;66.78;99767.22;5042134;28;20025;-69
2022/08/29 05:11:35;;;;;;;28.13;11.38;;;;;;;23.92;67.24;99759.50;5044131;28;20076;-68
2022/08/29 05:14:01;;;;;;;33.22;9.95;;;;;;;23.96;67.21;99759.84;5043202;28;20029;-68
2022/08/29 05:16:28;;;;;;;32.33;10.88;;;;;;;24.00;67.50;99769.09;5042791;28;20052;-68
2022/08/29 05:18:55;;;;;;;26.65;10.63;;;;;;;24.07;66.91;99772.44;5042194;28;20033;-68
2022/08/29 05:21:39;;;;;;;36.80;11.25;;;;;;;24.07;67.42;99777.84;5042299;28;20298;-68
2022/08/29 05:24:10;;;;;;;25.63;11.60;;;;;;;24.05;68.24;99780.00;5041621;28;20044;-68
2022/08/29 05:26:42;;;;;;;25.35;11.40;;;;;;;24.17;68.21;99775.28;5042431;28;20034;-68
2022/08/29 05:29:09;;;;;;;23.17;10.63;;;;;;;24.56;66.99;99769.84;5041673;28;20047;-69
2022/08/29 05:31:37;;;;;;;37.60;11.02;;;;;;;24.91;65.52;99777.56;5041148;28;20319;-68
2022/08/29 05:34:04;;;;;;;28.88;11.73;;;;;;;25.09;64.59;99780.78;5040310;28;20040;-68
2022/08/29 05:36:30;;;;;;;37.58;14.55;;;;;;;25.11;63.48;99780.53;5041869;28;20385;-68
2022/08/29 05:38:55;;;;;;;31.85;14.85;;;;;;;25.59;62.70;99782.28;5042887;28;20099;-68
2022/08/29 05:41:20;;;;;;;30.48;15.40;;;;;;;25.89;61.25;99783.63;5045379;28;20033;-68
2022/08/29 05:43:46;;;;;;;30.77;15.32;;;;;;;26.06;60.43;99771.56;5042687;28;20331;-68
2022/08/29 05:46:11;;;;;;;34.72;15.38;;;;;;;26.58;58.71;99781.59;5042670;28;20327;-68
2022/08/29 05:48:40;;;;;;;35.65;15.73;;;;;;;26.87;57.38;99779.22;5046547;28;20048;-68
2022/08/29 05:51:13;;;;;;;31.55;14.65;;;;;;;27.18;56.77;99776.63;5044082;28;20052;-69
2022/08/29 05:53:38;;;;;;;37.40;15.10;;;;;;;27.65;54.82;99766.31;5042415;28;20368;-69
2022/08/29 05:56:05;;;;;;;28.60;14.27;;;;;;;28.07;53.58;99776.03;5040776;28;20045;-68
2022/08/29 05:58:30;;;;;;;30.92;14.15;;;;;;;28.34;52.08;99781.19;5042487;28;20112;-68
2022/08/29 06:00:56;;;;;;;25.67;12.68;;;;;;;28.38;51.06;99784.19;5042874;28;20029;-69
2022/08/29 06:03:21;;;;;;;29.60;12.43;;;;;;;28.63;50.64;99780.53;5042917;28;20025;-69
2022/08/29 06:05:51;;;;;;;19.70;9.70;;;;;;;28.79;48.32;99774.72;5047084;28;20083;-69
2022/08/29 06:08:19;;;;;;;22.70;8.40;;;;;;;28.78;46.83;99780.44;5044852;28;20056;-69
2022/08/29 06:10:44;;;;;;;24.25;7.93;;;;;;;28.47;46.20;99772.41;5048654;28;20343;-69
2022/08/29 06:13:11;;;;;;;14.43;7.28;;;;;;;28.47;45.75;99785.22;5046142;28;20047;-69
2022/08/29 06:15:36;;;;;;;19.20;7.13;;;;;;;28.90;44.84;99789.13;5045667;28;20030;-69
2022/08/29 06:18:03;;;;;;;23.70;7.40;;;;;;;28.78;44.45;99780.44;5046104;28;20067;-69
2022/08/29 06:20:29;;;;;;;15.70;6.55;;;;;;;29.02;44.05;99775.16;5045311;28;20032;-69
2022/08/29 06:22:54;;;;;;;20.65;7.60;;;;;;;29.00;44.19;99778.16;5044482;28;20022;-69
2022/08/29 06:25:20;;;;;;;21.70;8.70;;;;;;;29.24;44.49;99770.94;5047542;28;20039;-69
2022/08/29 06:27:45;;;;;;;21.05;7.95;;;;;;;29.56;43.45;99772.34;5045327;28;20036;-69
2022/08/29 06:30:11;;;;;;;17.35;7.63;;;;;;;29.64;43.42;99777.16;5047686;28;20338;-69
2022/08/29 06:32:36;;;;;;;10.82;6.47;;;;;;;29.47;43.50;99779.50;5045593;28;20033;-69
2022/08/29 06:35:02;;;;;;;22.90;7.15;;;;;;;29.60;43.55;99781.56;5045464;28;20040;-69
2022/08/29 06:37:28;;;;;;;18.98;6.72;;;;;;;29.91;43.35;99781.28;5043442;28;20029;-69
2022/08/29 06:39:53;;;;;;;13.68;6.70;;;;;;;30.17;43.03;99785.41;5044213;28;20040;-68
2022/08/29 06:42:22;;;;;;;14.13;6.57;;;;;;;30.31;42.62;99775.44;5027029;28;20323;-68
2022/08/29 06:44:48;;;;;;;15.18;6.32;;;;;;;30.35;42.32;99781.94;5048823;28;20319;-68
2022/08/29 06:47:13;;;;;;;20.40;7.45;;;;;;;30.69;41.39;99778.25;5045180;28;20298;-68
2022/08/29 06:49:39;;;;;;;16.98;6.55;;;;;;;30.72;41.13;99783.94;5045440;28;20060;-69
2022/08/29 06:52:05;;;;;;;20.20;6.93;;;;;;;30.92;40.21;99776.56;5045107;28;20114;-68
2022/08/29 06:54:30;;;;;;;13.30;6.57;;;;;;;30.84;41.20;99782.69;5044403;28;20037;-68
2022/08/29 06:56:57;;;;;;;14.73;6.03;;;;;;;30.98;40.86;99778.94;5046523;28;20021;-68
2022/08/29 06:59:23;;;;;;;17.48;6.50;;;;;;;31.38;40.10;99780.28;5045724;28;20282;-69
2022/08/29 07:01:49;;;;;;;17.38;6.72;;;;;;;31.67;39.89;99777.31;5045729;28;20061;-69
2022/08/29 07:04:15;;;;;;;16.10;6.38;;;;;;;31.98;39.02;99774.06;5038845;28;20227;-69
2022/08/29 07:06:42;;;;;;;15.63;6.68;;;;;;;32.29;38.18;99777.88;5055294;28;20184;-69
2022/08/29 07:09:07;;;;;;;15.63;6.53;;;;;;;31.95;38.09;99780.16;5056811;28;20311;-68
2022/08/29 07:11:35;;;;;;;18.58;9.65;;;;;;;32.14;38.57;99780.06;5057272;28;20037;-68
2022/08/29 07:14:03;;;;;;;19.33;9.13;;;;;;;31.82;39.42;99768.06;5057054;28;20052;-69
2022/08/29 07:16:31;;;;;;;19.20;7.28;;;;;;;31.99;38.63;99768.28;5051435;28;20057;-68
2022/08/29 07:18:57;;;;;;;23.50;7.85;;;;;;;32.44;38.12;99779.50;5054092;28;20036;-69
2022/08/29 07:21:24;;;;;;;19.50;6.80;;;;;;;32.45;37.11;99777.56;5056949;28;20239;-68
2022/08/29 07:23:51;;;;;;;22.45;6.75;;;;;;;32.61;36.67;99770.66;5056127;28;20036;-68
2022/08/29 07:26:19;;;;;;;16.92;7.40;;;;;;;32.70;36.87;99772.34;5054404;28;20029;-68
2022/08/29 07:28:46;;;;;;;25.20;7.47;;;;;;;32.44;36.53;99775.94;5037924;28;20025;-69
2022/08/29 07:31:12;;;;;;;17.42;6.45;;;;;;;32.15;36.61;99752.34;5057045;28;20346;-68
2022/08/29 07:33:37;;;;;;;18.83;6.43;;;;;;;32.85;36.37;99779.47;5056975;28;20036;-69
2022/08/29 07:36:03;;;;;;;19.13;7.00;;;;;;;32.91;35.57;99778.22;5055042;28;20101;-69
2022/08/29 07:38:29;;;;;;;21.73;6.88;;;;;;;33.01;34.38;99780.72;5055684;28;20064;-68
2022/08/29 07:41:04;;;;;;;13.38;6.05;;;;;;;33.07;34.36;99775.13;5058183;28;20064;-69
2022/08/29 07:43:30;;;;;;;22.52;6.82;;;;;;;33.19;33.56;99776.19;5052041;28;20033;-69
2022/08/29 07:45:56;;;;;;;16.13;6.70;;;;;;;33.57;33.44;99770.38;5057348;28;20032;-68
2022/08/29 07:48:23;;;;;;;23.08;6.90;;;;;;;33.65;33.30;99769.63;5053872;28;20307;-69
2022/08/29 07:50:50;;;;;;;19.00;5.95;;;;;;;33.69;31.91;99767.88;5056406;28;20104;-69
2022/08/29 07:53:16;;;;;;;19.15;6.55;;;;;;;33.83;32.19;99767.81;5054062;28;20029;-69
2022/08/29 07:55:42;;;;;;;16.58;6.45;;;;;;;34.04;31.24;99765.31;5055087;28;20041;-69
2022/08/29 07:58:08;;;;;;;13.35;6.13;;;;;;;34.23;30.95;99752.13;5052540;28;20033;-69
2022/08/29 08:00:34;;;;;;;15.25;6.97;;;;;;;34.25;31.16;99747.94;5056400;28;20048;-68
2022/08/29 08:02:59;;;;;;;14.38;6.25;;;;;;;34.50;30.90;99762.94;5056533;28;20036;-69
2022/08/29 08:05:25;;;;;;;19.33;6.60;;;;;;;34.62;30.38;99759.56;5053988;28;20245;-69
2022/08/29 08:07:50;;;;;;;16.83;5.75;;;;;;;34.58;29.66;99750.31;5057452;28;20370;-68
2022/08/29 08:10:18;;;;;;;21.13;6.60;;;;;;;34.22;30.34;99753.25;5054403;28;20025;-68
2022/08/29 08:12:44;;;;;;;12.60;5.75;;;;;;;33.50;30.51;99748.88;5052829;28;20090;-69
2022/08/29 08:15:10;;;;;;;15.32;6.25;;;;;;;34.08;30.26;99745.13;5056348;28;20052;-68
2022/08/29 08:17:35;;;;;;;15.88;6.00;;;;;;;34.56;29.45;99744.34;5054883;28;20025;-68
2022/08/29 08:20:05;;;;;;;12.75;6.00;;;;;;;34.01;30.13;99750.28;5055966;28;20043;-68
2022/08/29 08:22:31;;;;;;;18.30;6.10;;;;;;;34.39;29.03;99744.31;5053881;28;20033;-68
2022/08/29 08:24:56;;;;;;;16.50;6.57;;;;;;;34.70;29.05;99745.00;5055353;28;20044;-69
2022/08/29 08:27:22;;;;;;;19.98;6.18;;;;;;;34.51;29.68;99736.25;5051507;28;20025;-69
2022/08/29 08:29:47;;;;;;;15.07;6.32;;;;;;;34.85;29.13;99744.56;5055757;28;20047;-69
2022/08/29 08:32:13;;;;;;;16.45;6.47;;;;;;;34.79;29.35;99740.31;5055228;28;20039;-69
2022/08/29 08:34:38;;;;;;;18.48;6.30;;;;;;;35.01;29.45;99739.38;5038568;28;20021;-69
2022/08/29 08:37:10;;;;;;;13.88;6.88;;;;;;;35.23;29.20;99738.38;5055750;28;20031;-69
2022/08/29 08:39:36;;;;;;;22.73;8.55;;;;;;;35.15;30.19;99739.19;5057320;28;20039;-69
2022/08/29 08:42:05;;;;;;;22.77;7.78;;;;;;;35.18;29.61;99733.03;5052202;28;20051;-69
2022/08/29 08:44:43;;;;;;;19.95;7.57;;;;;;;34.90;29.86;99710.56;5037842;28;20039;-69
2022/08/29 08:47:14;;;;;;;13.90;6.80;;;;;;;34.72;30.53;99720.75;5054143;28;20070;-69
2022/08/29 08:49:48;;;;;;;18.48;6.72;;;;;;;34.79;30.78;99723.81;5054835;28;20049;-69
2022/08/29 08:52:29;;;;;;;24.60;6.65;;;;;;;34.40;30.90;99735.75;5053530;28;20222;-69
2022/08/29 08:55:00;;;;;;;16.83;6.30;;;;;;;34.74;31.19;99729.47;5053791;28;20068;-69
2022/08/29 08:57:34;;;;;;;20.73;7.22;;;;;;;34.80;30.98;99719.94;5054828;28;20049;-69
2022/08/29 09:00:01;;;;;;;14.48;6.32;;;;;;;34.71;30.46;99718.31;5053328;28;20029;-69
2022/08/29 09:02:50;;;;;;;17.25;7.47;;;;;;;35.01;30.05;99724.81;5054522;28;20368;-69
2022/08/29 09:05:18;;;;;;;26.20;7.57;;;;;;;35.12;30.46;99717.84;5049862;28;20096;-68
2022/08/29 09:08:08;;;;;;;18.73;7.05;;;;;;;35.19;29.79;99713.44;5055422;28;20096;-69
2022/08/29 09:11:00;;;;;;;22.08;6.95;;;;;;;35.41;29.01;99717.19;5052765;28;20099;-69
2022/08/29 09:13:42;;;;;;;18.77;6.85;;;;;;;35.18;30.03;99709.09;5055382;28;20064;-69
2022/08/29 09:16:34;;;;;;;21.65;6.75;;;;;;;35.22;29.58;99715.56;5053827;28;20051;-69
2022/08/29 09:19:10;;;;;;;19.90;6.63;;;;;;;35.04;29.98;99705.69;5039141;28;20040;-69
2022/08/29 09:21:48;;;;;;;12.50;5.78;;;;;;;35.10;29.76;99700.84;5052354;28;20034;-69
2022/08/29 09:24:24;;;;;;;11.73;6.75;;;;;;;34.57;29.86;99702.78;5053114;28;20078;-69
2022/08/29 09:26:50;;;;;;;15.50;6.47;;;;;;;34.32;29.98;99697.19;5052321;28;20092;-68
2022/08/29 09:29:19;;;;;;;21.40;6.53;;;;;;;34.30;28.82;99692.00;5056964;28;20079;-69
2022/08/29 09:32:02;;;;;;;22.40;7.28;;;;;;;34.51;28.71;99690.31;5053675;28;20147;-69
2022/08/29 09:34:38;;;;;;;18.10;6.55;;;;;;;34.50;29.22;99696.13;5054406;28;20313;-69
2022/08/29 09:37:20;;;;;;;19.83;8.60;;;;;;;34.35;30.58;99675.41;5054747;28;20037;-69
2022/08/29 09:40:17;;;;;;;18.02;7.03;;;;;;;34.39;29.99;99684.63;5053715;28;20040;-68
2022/08/29 09:42:58;;;;;;;22.17;7.78;;;;;;;34.48;29.63;99687.41;5054420;28;20037;-68
2022/08/29 09:45:24;;;;;;;20.40;8.68;;;;;;;34.30;31.14;99681.00;5049793;28;20063;-69
2022/08/29 09:48:08;;;;;;;15.30;7.60;;;;;;;34.10;31.22;99671.44;5053915;28;20029;-69
2022/08/29 09:50:34;;;;;;;19.55;7.68;;;;;;;34.17;30.84;99682.75;5052464;28;20289;-69
2022/08/29 09:53:02;;;;;;;21.40;7.95;;;;;;;34.38;30.13;99679.47;5054081;28;20150;-69
2022/08/29 09:55:41;;;;;;;22.80;7.22;;;;;;;34.16;30.13;99678.41;5051526;28;20041;-68
2022/08/29 09:58:26;;;;;;;13.02;7.75;;;;;;;33.80;30.58;99669.53;5038682;28;20025;-69
2022/08/29 10:01:10;;;;;;;18.23;8.80;;;;;;;33.92;30.63;99667.84;5052732;28;20052;-69
2022/08/29 10:04:03;;;;;;;19.13;8.68;;;;;;;34.04;30.38;99672.72;5053037;28;20040;-69
2022/08/29 10:06:31;;;;;;;22.42;8.45;;;;;;;33.92;30.91;99667.03;5053125;28;20045;-68
2022/08/29 10:09:05;;;;;;;19.17;8.25;;;;;;;33.75;30.70;99662.25;5053375;28;20066;-68
2022/08/29 10:11:40;;;;;;;18.42;8.07;;;;;;;33.77;31.36;99662.75;5054950;28;20040;-68
2022/08/29 10:14:12;;;;;;;17.48;7.82;;;;;;;33.59;30.64;99656.38;5058888;28;20391;-69
2022/08/29 10:18:19;;;;;;;24.73;8.18;;;;;;;33.71;30.89;99653.03;5060780;28;20266;-68
2022/08/29 10:19:45;;;;;;;18.92;7.82;;;;;;;33.45;31.24;99650.19;5058960;28;20041;-69
2022/08/29 10:22:23;;;;;;;22.10;7.40;;;;;;;33.47;30.69;99641.63;5059865;28;20035;-69
2022/08/29 10:24:57;;;;;;;19.75;8.07;;;;;;;33.35;32.13;99644.16;5060103;28;20330;-68
2022/08/29 10:27:47;;;;;;;16.83;8.93;;;;;;;33.67;30.94;99645.75;5041919;28;20048;-68
2022/08/29 10:30:20;;;;;;;22.90;8.57;;;;;;;33.89;30.23;99640.19;5059705;28;20033;-68
2022/08/29 10:33:23;;;;;;;19.03;8.27;;;;;;;33.67;30.86;99641.06;5060144;28;20045;-69
2022/08/29 10:36:06;;;;;;;17.25;8.05;;;;;;;33.68;31.32;99634.44;5041382;28;20275;-69
2022/08/29 10:38:32;;;;;;;22.23;8.15;;;;;;;33.85;30.21;99639.22;5060310;28;20055;-69
2022/08/29 10:41:09;;;;;;;11.50;7.00;;;;;;;33.93;30.22;99635.69;5059976;28;20378;-69
2022/08/29 10:43:46;;;;;;;17.70;7.65;;;;;;;34.12;30.04;99627.16;5059591;28;20013;-69
2022/08/29 10:46:31;;;;;;;15.95;7.75;;;;;;;34.07;29.66;99627.31;5059730;28;20043;-69
2022/08/29 10:49:09;;;;;;;15.85;7.55;;;;;;;34.22;30.04;99624.91;5059008;28;20324;-68
2022/08/29 10:51:58;;;;;;;16.90;8.02;;;;;;;34.32;30.41;99620.22;5061755;28;20044;-69
2022/08/29 10:54:50;;;;;;;16.52;7.32;;;;;;;34.16;30.12;99623.44;5063986;28;20041;-69
2022/08/29 10:57:49;;;;;;;15.93;6.72;;;;;;;34.26;29.18;99614.06;5060058;28;20048;-68
2022/08/29 11:00:20;;;;;;;17.20;5.97;;;;;;;34.40;27.84;99616.72;5063367;28;20064;-68
2022/08/29 11:03:23;;;;;;;13.52;5.88;;;;;;;34.31;27.52;99616.66;5063405;28;20218;-68
2022/08/29 11:05:57;;;;;;;17.23;6.35;;;;;;;34.04;28.42;99605.97;5062729;28;20041;-69
2022/08/29 11:08:29;;;;;;;17.45;5.78;;;;;;;33.88;28.04;99613.84;5063359;28;20036;-68
2022/08/29 11:10:55;;;;;;;20.23;5.78;;;;;;;33.77;27.89;99607.81;5063227;28;20041;-68
2022/08/29 11:13:49;;;;;;;12.43;5.78;;;;;;;33.85;27.28;99604.31;5063276;28;20048;-69
2022/08/29 11:16:24;;;;;;;14.63;5.95;;;;;;;33.89;27.82;99601.75;5041856;28;20049;-69
2022/08/29 11:19:14;;;;;;;10.88;5.05;;;;;;;33.97;28.17;99598.19;5063401;28;20028;-68
2022/08/29 11:21:45;;;;;;;25.50;6.13;;;;;;;34.02;27.51;99594.50;5061964;28;20078;-69
2022/08/29 11:24:14;;;;;;;16.45;6.43;;;;;;;33.81;27.83;99556.66;5043981;28;20031;-68
2022/08/29 11:26:42;;;;;;;17.95;5.78;;;;;;;34.12;27.69;99585.94;5062865;28;20330;-69
2022/08/29 11:29:34;;;;;;;14.27;5.85;;;;;;;34.04;28.74;99573.00;5062869;28;20083;-68
2022/08/29 11:32:30;;;;;;;18.05;5.68;;;;;;;34.23;28.90;99577.06;5062971;28;20063;-69
2022/08/29 11:35:16;;;;;;;13.90;5.85;;;;;;;34.17;28.39;99566.53;5044846;28;20044;-68
2022/08/29 11:38:07;;;;;;;16.35;5.93;;;;;;;34.23;28.54;99563.31;5057298;28;20045;-69
2022/08/29 11:40:51;;;;;;;17.42;6.18;;;;;;;34.19;29.21;99561.53;5041245;28;20207;-68